Rawlins, WY (82301)

8:59 PM MDT on September 02, 2014 (GMT -0600)
Downtown | Change Station
CLOSE
Current Station
Personal Weather Station
Location: Sinclair, Wy
Elevation: 6611 ft
Nearby Weather Stations

Elev 6611 ft 41.78 °N, 107.12 °W | Updated 7 seconds ago

Clear
Clear
66.3 °F
Feels Like 66.3 °F
N
7.7
Wind Variable Wind from WSW
Gusts 8.5 mph

Today
High -- | Low -- °F
--% Chance of Precip.
Yesterday
High -- | Low -- °F
Precip. -- in
6:35 AM 7:40 PM
First Quarter, 57% visible
Pressure 29.77 in
Visibility 10.0 miles
Clouds Clear
Dew Point 38 °F
Humidity 35%
Rainfall 0.00 in
Snow Depth Not available.
UV 0 out of 12
Pollen 8.50 out of 12
Air Quality Not available.
Flu Activity Not available.
METAR KRWL 030153Z AUTO 24007KT 10SM CLR 21/M01 A3003 RMK AO2 SLP081 T02111006

More Conditions Fewer Conditions

Pressure 29.77 in
Visibility 10.0 miles
Clouds Clear
Dew Point 38 °F
Humidity 35%
Rainfall 0.00 in
Snow Depth Not available.
UV 0 out of 12
Pollen 8.50 out of 12
Air Quality Not available.
Flu Activity Not available.
METAR KRWL 030153Z AUTO 24007KT 10SM CLR 21/M01 A3003 RMK AO2 SLP081 T02111006

More Conditions Fewer Conditions

10-Day Weather Forecast

Almanac

Astronomy

Sep. 02, 2014 Rise Set
Actual Time 6:35 AM MDT 7:40 PM MDT
Civil Twilight 6:07 AM MDT 8:08 PM MDT
Nautical Twilight 5:33 AM MDT 8:42 PM MDT
Astronomical Twilight 4:57 AM MDT 9:18 PM MDT
Moon 2:29 PM MDT (9/2) No Moon Set
Length of Visible Light 14h 01m
Length of Day
13h 04m
Tomorrow will be 2m 41s shorter.
First Quarter, 57% of the Moon is Illuminated
Today
First Quarter
Sep 8
Full
Sep 15
Last Quarter
Sep 24
New
Oct 1
First Quarter

Today's Extremes

State Highs State Lows

Community

WunderPhotos

Upload Photos

1,749,845 photos uploaded!

Nearby

Snow Depth

Station Depth Elevation
Cinnabar Park 0 in 9690 ft
Casper Mountain 0 in 7850 ft
Crow Creek 9 in 8330 ft
Big Sandy Opening 0 in 9080 ft
New Fork Lake 0 in 8340 ft

Earthquake Activity

City Distance Mag. Time & Date
No recent earthquake activity has been reported nearby.
Minimum magnitude displayed is 2.5.

Coastal Water Temperatures

Place Temperature
No Stations Reporting

Nearby Weather Stations